地図

経路データ

SID SEASON NUMBER BASIN SUBBASIN NAME ISO_TIME NATURE LAT LON WMO_WIND WMO_PRES WMO_AGENCY TRACK_TYPE DIST2LAND LANDFALL IFLAG USA_AGENCY USA_ATCF_ID USA_LAT USA_LON USA_RECORD USA_STATUS USA_WIND USA_PRES USA_SSHS USA_R34_NE USA_R34_SE USA_R34_SW USA_R34_NW USA_R50_NE USA_R50_SE USA_R50_SW USA_R50_NW USA_R64_NE USA_R64_SE USA_R64_SW USA_R64_NW USA_POCI USA_ROCI USA_RMW USA_EYE TOKYO_LAT TOKYO_LON TOKYO_GRADE TOKYO_WIND TOKYO_PRES TOKYO_R50_DIR TOKYO_R50_LONG TOKYO_R50_SHORT TOKYO_R30_DIR TOKYO_R30_LONG TOKYO_R30_SHORT TOKYO_LAND CMA_LAT CMA_LON CMA_CAT CMA_WIND CMA_PRES HKO_LAT HKO_LON HKO_CAT HKO_WIND HKO_PRES NEWDELHI_LAT NEWDELHI_LON NEWDELHI_GRADE NEWDELHI_WIND NEWDELHI_PRES NEWDELHI_CI NEWDELHI_DP NEWDELHI_POCI REUNION_LAT REUNION_LON REUNION_TYPE REUNION_WIND REUNION_PRES REUNION_TNUM REUNION_CI REUNION_RMW REUNION_R34_NE REUNION_R34_SE REUNION_R34_SW REUNION_R34_NW REUNION_R50_NE REUNION_R50_SE REUNION_R50_SW REUNION_R50_NW REUNION_R64_NE REUNION_R64_SE REUNION_R64_SW REUNION_R64_NW BOM_LAT BOM_LON BOM_TYPE BOM_WIND BOM_PRES BOM_TNUM BOM_CI BOM_RMW BOM_R34_NE BOM_R34_SE BOM_R34_SW BOM_R34_NW BOM_R50_NE BOM_R50_SE BOM_R50_SW BOM_R50_NW BOM_R64_NE BOM_R64_SE BOM_R64_SW BOM_R64_NW BOM_ROCI BOM_POCI BOM_EYE BOM_POS_METHOD BOM_PRES_METHOD NADI_LAT NADI_LON NADI_CAT NADI_WIND NADI_PRES WELLINGTON_LAT WELLINGTON_LON WELLINGTON_WIND WELLINGTON_PRES DS824_LAT DS824_LON DS824_STAGE DS824_WIND DS824_PRES TD9636_LAT TD9636_LON TD9636_STAGE TD9636_WIND TD9636_PRES TD9635_LAT TD9635_LON TD9635_WIND TD9635_PRES TD9635_ROCI NEUMANN_LAT NEUMANN_LON NEUMANN_CLASS NEUMANN_WIND NEUMANN_PRES MLC_LAT MLC_LON MLC_CLASS MLC_WIND MLC_PRES USA_GUST BOM_GUST BOM_GUST_PER REUNION_GUST REUNION_GUST_PER USA_SEAHGT USA_SEARAD_NE USA_SEARAD_SE USA_SEARAD_SW USA_SEARAD_NW STORM_SPEED STORM_DIR
1900303N12129 1900 40 WP MM NOT_NAMED 1900-10-30 04:00:00 NR 11.6000 128.700 main 323 283 __________O___ -1 11.6000 128.700 7 12 287
1900303N12129 1900 40 WP MM NOT_NAMED 1900-10-30 06:00:00 NR 11.7150 128.305 main 283 230 __________P___ -1 11.7150 128.305 7 12 286
1900303N12129 1900 40 WP MM NOT_NAMED 1900-10-30 09:00:00 NR 11.8813 127.722 main 230 186 __________P___ -1 11.8813 127.722 7 12 286
1900303N12129 1900 40 WP MM NOT_NAMED 1900-10-30 12:00:00 NR 12.0332 127.167 main 186 130 __________P___ -1 12.0332 127.167 7 11 285
1900303N12129 1900 40 WP MM NOT_NAMED 1900-10-30 15:00:00 NR 12.1630 126.657 main 130 108 __________P___ -1 12.1630 126.657 7 10 284
1900303N12129 1900 40 WP MM NOT_NAMED 1900-10-30 16:00:00 NR 12.2000 126.500 main 108 76 __________O___ -1 12.2000 126.500 7 9 283
1900303N12129 1900 40 WP MM NOT_NAMED 1900-10-30 18:00:00 NR 12.2640 126.207 main 76 34 __________P___ -1 12.2640 126.207 7 8 282
1900303N12129 1900 40 WP MM NOT_NAMED 1900-10-30 21:00:00 NR 12.3414 125.805 main 34 10 __________P___ -1 12.3414 125.805 7 8 281
1900303N12129 1900 40 WP MM NOT_NAMED 1900-10-31 00:00:00 NR 12.4076 125.424 main 10 0 __________P___ -1 12.4076 125.424 7 8 280
1900303N12129 1900 40 WP MM NOT_NAMED 1900-10-31 03:00:00 NR 12.4751 125.036 main 0 0 __________P___ -1 12.4751 125.036 7 8 280
1900303N12129 1900 40 WP MM NOT_NAMED 1900-10-31 04:00:00 NR 12.5000 124.900 main 0 0 __________O___ -1 12.5000 124.900 3 9 282
1900303N12129 1900 40 WP MM NOT_NAMED 1900-10-31 06:00:00 NR 12.5661 124.603 main 11 0 __________P___ -1 12.5661 124.603 3 9 283
1900303N12129 1900 40 WP MM NOT_NAMED 1900-10-31 09:00:00 NR 12.6718 124.139 main 0 0 __________P___ -1 12.6718 124.139 3 9 283
1900303N12129 1900 40 WP MM NOT_NAMED 1900-10-31 12:00:00 NR 12.7768 123.658 main 0 10 __________P___ -1 12.7768 123.658 3 10 282
1900303N12129 1900 40 WP MM NOT_NAMED 1900-10-31 15:00:00 NR 12.8721 123.165 main 15 24 __________P___ -1 12.8721 123.165 3 10 281
1900303N12129 1900 40 WP MM NOT_NAMED 1900-10-31 16:00:00 NR 12.9000 123.000 main 34 33 __________O___ -1 12.9000 123.000 4 9 278
1900303N12129 1900 40 WP MM NOT_NAMED 1900-10-31 18:00:00 NR 12.9391 122.688 main 33 22 __________P___ -1 12.9391 122.688 4 9 276
1900303N12129 1900 40 WP MM NOT_NAMED 1900-10-31 21:00:00 NR 12.9852 122.214 main 48 21 __________P___ -1 12.9852 122.214 4 9 275
1900303N12129 1900 40 WP MM NOT_NAMED 1900-11-01 00:00:00 NR 13.0276 121.719 main 21 0 __________P___ -1 13.0276 121.719 4 10 275
1900303N12129 1900 40 WP MM NOT_NAMED 1900-11-01 03:00:00 NR 13.0788 121.188 main 0 0 __________P___ -1 13.0788 121.188 4 11 276
1900303N12129 1900 40 WP MM NOT_NAMED 1900-11-01 04:00:00 NR 13.1000 121.000 main 0 0 __________O___ -1 13.1000 121.000 4 11 278
1900303N12129 1900 40 WP MM NOT_NAMED 1900-11-01 06:00:00 NR 13.1604 120.606 main 0 0 __________P___ -1 13.1604 120.606 4 12 279
1900303N12129 1900 40 WP MM NOT_NAMED 1900-11-01 09:00:00 NR 13.2637 119.978 main 34 44 __________P___ -1 13.2637 119.978 4 13 280
1900303N12129 1900 40 WP MM NOT_NAMED 1900-11-01 12:00:00 NR 13.3713 119.315 main 108 108 __________P___ -1 13.3713 119.315 4 13 279
1900303N12129 1900 40 WP MM NOT_NAMED 1900-11-01 15:00:00 NR 13.4708 118.631 main 184 184 __________P___ -1 13.4708 118.631 4 14 278
1900303N12129 1900 40 WP MM NOT_NAMED 1900-11-01 16:00:00 NR 13.5000 118.400 main 205 205 __________O___ -1 13.5000 118.400 4 14 276
1900303N12129 1900 40 WP MM NOT_NAMED 1900-11-01 18:00:00 NR 13.5449 117.924 main 259 259 __________P___ -1 13.5449 117.924 4 14 275
1900303N12129 1900 40 WP MM NOT_NAMED 1900-11-01 21:00:00 NR 13.5996 117.196 main 336 336 __________P___ -1 13.5996 117.196 4 14 274
1900303N12129 1900 40 WP MM NOT_NAMED 1900-11-02 00:00:00 NR 13.6445 116.481 main 410 417 __________P___ -1 13.6445 116.481 4 14 274
1900303N12129 1900 40 WP MM NOT_NAMED 1900-11-02 03:00:00 NR 13.6859 115.809 main 479 479 __________P___ -1 13.6859 115.809 4 13 274
1900303N12129 1900 40 WP MM NOT_NAMED 1900-11-02 04:00:00 NR 13.7000 115.600 main 498 498 __________O___ -1 13.7000 115.600 4 11 275
1900303N12129 1900 40 WP MM NOT_NAMED 1900-11-02 06:00:00 NR 13.7404 115.226 main 535 535 __________P___ -1 13.7404 115.226 4 10 277
1900303N12129 1900 40 WP MM NOT_NAMED 1900-11-02 09:00:00 NR 13.8018 114.716 main 571 520 __________P___ -1 13.8018 114.716 4 10 277
1900303N12129 1900 40 WP MM NOT_NAMED 1900-11-02 12:00:00 NR 13.8558 114.239 main 520 478 __________P___ -1 13.8558 114.239 4 9 276
1900303N12129 1900 40 WP MM NOT_NAMED 1900-11-02 15:00:00 NR 13.8930 113.764 main 478 457 __________P___ -1 13.8930 113.764 4 9 274
1900303N12129 1900 40 WP MM NOT_NAMED 1900-11-02 16:00:00 NR 13.9000 113.600 main 457 415 __________O___ -1 13.9000 113.600 4 10 271
1900303N12129 1900 40 WP MM NOT_NAMED 1900-11-02 18:00:00 NR 13.9058 113.232 main 415 363 __________P___ -1 13.9058 113.232 4 11 270
1900303N12129 1900 40 WP MM NOT_NAMED 1900-11-02 21:00:00 NR 13.8956 112.666 main 363 302 __________P___ -1 13.8956 112.666 4 11 268
1900303N12129 1900 40 WP MM NOT_NAMED 1900-11-03 00:00:00 NR 13.8656 112.105 main 302 248 __________P___ -1 13.8656 112.105 4 11 266
1900303N12129 1900 40 WP MM NOT_NAMED 1900-11-03 03:00:00 NR 13.8188 111.569 main 248 226 __________P___ -1 13.8188 111.569 4 10 265
1900303N12129 1900 40 WP MM NOT_NAMED 1900-11-03 04:00:00 NR 13.8000 111.400 main 226 194 __________O___ -1 13.8000 111.400 4 9 263
1900303N12129 1900 40 WP MM NOT_NAMED 1900-11-03 06:00:00 NR 13.7635 111.096 main 194 151 __________P___ -1 13.7635 111.096 4 9 262
1900303N12129 1900 40 WP MM NOT_NAMED 1900-11-03 09:00:00 NR 13.6966 110.672 main 151 108 __________P___ -1 13.6966 110.672 4 8 260
1900303N12129 1900 40 WP MM NOT_NAMED 1900-11-03 12:00:00 NR 13.6179 110.263 main 108 54 __________P___ -1 13.6179 110.263 4 8 258
1900303N12129 1900 40 WP MM NOT_NAMED 1900-11-03 15:00:00 NR 13.5306 109.846 main 54 43 __________P___ -1 13.5306 109.846 4 8 258
1900303N12129 1900 40 WP MM NOT_NAMED 1900-11-03 16:00:00 NR 13.5000 109.700 main 43 10 __________O___ -1 13.5000 109.700 7 9 258
1900303N12129 1900 40 WP MM NOT_NAMED 1900-11-03 18:00:00 NR 13.4373 109.395 main 10 0 __________P___ -1 13.4373 109.395 7 9 258
1900303N12129 1900 40 WP MM NOT_NAMED 1900-11-03 21:00:00 NR 13.3396 108.910 main 0 0 __________P___ -1 13.3396 108.910 7 10 258
1900303N12129 1900 40 WP MM NOT_NAMED 1900-11-04 00:00:00 NR 13.2385 108.400 main 0 0 __________P___ -1 13.2385 108.400 7 10 259
1900303N12129 1900 40 WP MM NOT_NAMED 1900-11-04 03:00:00 NR 13.1349 107.876 main 0 0 __________P___ -1 13.1349 107.876 7 10 259
1900303N12129 1900 40 WP MM NOT_NAMED 1900-11-04 04:00:00 NR 13.1000 107.700 main 0 __________O___ -1 13.1000 107.700 7 11 259

デジタル台風データ・検索

IBTrACS Databaseについて

本データベースは、米国NOAAが公開する1842年以降の世界の熱帯低気圧のベストトラックデータアーカイブInternational Best Track Archive for Climate Stewardship (IBTrACS)を、ウェブで閲覧しやすい形式に変換したものです。

最終更新日:2021-10-25